Terminal Aerodrome Forecast
Issued by NWS

Home | Current Version | Previous Version | Text Only | Print | Product List | Glossary On
Versions: 1 2 3 4 5 6 7 8 9 10 11 12 13
000
FTUS45 KABQ 200542
TAFSAF
TAF
KSAF 200542Z 2006/2106 16008KT P6SM BKN080
     FM201600 22011KT P6SM SCT090
     FM201900 23012G20KT P6SM FEW090
     FM210100 19011KT P6SM SKC=

USA.gov is the U.S. government's official web portal to all federal, state and local government web resources and services.